createdAt,value
2017-12-15T00:00:41.991Z,21.30
2017-12-15T00:03:10.007Z,21.30
2017-12-15T00:05:38.175Z,21.30
2017-12-15T00:08:06.994Z,21.30
2017-12-15T00:10:35.072Z,21.30
2017-12-15T00:13:03.284Z,21.20
2017-12-15T00:15:31.307Z,21.20
2017-12-15T00:17:59.331Z,21.10
2017-12-15T00:20:27.528Z,21.20
2017-12-15T00:22:56.307Z,21.00
2017-12-15T00:25:25.125Z,21.00
2017-12-15T00:27:53.301Z,21.00
2017-12-15T00:30:21.939Z,20.90
2017-12-15T00:32:50.145Z,20.90
2017-12-15T00:35:19.092Z,20.90
2017-12-15T00:37:47.176Z,20.90
2017-12-15T00:40:15.194Z,20.80
2017-12-15T00:42:43.351Z,20.80
2017-12-15T00:45:11.444Z,20.80
2017-12-15T00:47:39.516Z,20.90
2017-12-15T00:50:07.719Z,20.90
2017-12-15T00:52:35.738Z,20.80
2017-12-15T00:55:03.770Z,20.90
2017-12-15T00:57:31.937Z,20.80
2017-12-15T00:59:59.975Z,20.80
2017-12-15T01:02:28.747Z,20.80
2017-12-15T01:04:56.948Z,20.80
2017-12-15T01:07:25.057Z,20.90
2017-12-15T01:09:53.180Z,20.90
2017-12-15T01:12:22.083Z,21.10
2017-12-15T01:14:50.871Z,20.90
2017-12-15T01:17:19.643Z,20.70
2017-12-15T01:19:47.815Z,20.70
2017-12-15T01:22:16.603Z,20.60
2017-12-15T01:24:44.639Z,20.60
2017-12-15T01:27:12.812Z,20.50
2017-12-15T01:29:40.823Z,20.50
2017-12-15T01:32:08.859Z,20.50
2017-12-15T01:34:37.186Z,20.50
2017-12-15T01:37:05.992Z,20.50
2017-12-15T01:39:34.056Z,20.50
2017-12-15T01:42:03.032Z,20.60
2017-12-15T01:44:31.107Z,20.60
2017-12-15T01:46:59.149Z,20.70
2017-12-15T01:49:27.294Z,20.70
2017-12-15T01:51:55.358Z,20.70
2017-12-15T01:54:23.440Z,20.60
2017-12-15T01:56:51.585Z,20.70
2017-12-15T01:59:20.397Z,20.70
2017-12-15T02:01:48.415Z,20.70
2017-12-15T02:04:16.595Z,20.80
2017-12-15T02:06:44.664Z,20.80
2017-12-15T02:09:12.724Z,20.80
2017-12-15T02:11:40.859Z,20.70
2017-12-15T02:14:08.909Z,20.60
2017-12-15T02:16:37.712Z,20.60
2017-12-15T02:19:06.589Z,20.50
2017-12-15T02:21:35.336Z,20.50
2017-12-15T02:24:03.358Z,20.50
2017-12-15T02:26:32.289Z,20.50
2017-12-15T02:29:00.356Z,20.50
2017-12-15T02:31:29.897Z,20.50
2017-12-15T02:33:58.345Z,20.40
2017-12-15T02:36:26.564Z,20.40
2017-12-15T02:38:54.638Z,20.30
2017-12-15T02:41:22.779Z,20.30
2017-12-15T02:43:50.800Z,20.30
2017-12-15T02:46:19.606Z,20.30
2017-12-15T02:48:48.641Z,20.30
2017-12-15T02:51:16.688Z,20.30
2017-12-15T02:53:44.761Z,20.40
2017-12-15T02:56:12.902Z,20.40
2017-12-15T02:58:40.979Z,20.40
2017-12-15T03:01:09.762Z,20.40
2017-12-15T03:03:38.648Z,20.40
2017-12-15T03:06:06.712Z,20.40
2017-12-15T03:08:34.780Z,20.30
2017-12-15T03:11:02.911Z,20.40
2017-12-15T03:13:30.976Z,20.30
2017-12-15T03:15:58.986Z,20.20
2017-12-15T03:18:27.119Z,20.20
2017-12-15T03:20:55.168Z,20.30
2017-12-15T03:23:23.935Z,20.30
2017-12-15T03:25:52.132Z,20.30
2017-12-15T03:28:20.930Z,20.60
2017-12-15T03:30:49.713Z,20.70
2017-12-15T03:33:18.603Z,20.60
2017-12-15T03:35:46.652Z,20.60
2017-12-15T03:38:14.815Z,20.70
2017-12-15T03:40:42.989Z,20.80
2017-12-15T03:43:11.003Z,20.70
2017-12-15T03:45:39.805Z,20.50
2017-12-15T03:48:08.730Z,20.50
2017-12-15T03:50:36.884Z,20.50
2017-12-15T03:53:05.018Z,20.50
2017-12-15T03:55:33.200Z,20.60
2017-12-15T03:58:01.219Z,20.80
2017-12-15T04:00:29.320Z,20.90
2017-12-15T04:02:57.438Z,21.10
2017-12-15T04:05:26.191Z,21.90
2017-12-15T04:07:54.301Z,21.90
2017-12-15T04:10:23.162Z,22.00
2017-12-15T04:12:51.256Z,22.00
2017-12-15T04:15:20.078Z,22.10
2017-12-15T04:17:48.230Z,22.00
2017-12-15T04:20:17.015Z,22.50
2017-12-15T04:22:45.836Z,22.50
2017-12-15T04:25:14.064Z,22.50
2017-12-15T04:27:42.900Z,22.60
2017-12-15T04:30:13.026Z,22.50
2017-12-15T04:32:44.465Z,22.40
2017-12-15T04:35:12.805Z,22.50
2017-12-15T04:37:44.569Z,22.80
2017-12-15T04:40:15.701Z,22.70
2017-12-15T04:42:43.837Z,22.90
2017-12-15T04:45:11.972Z,23.00
2017-12-15T04:47:43.079Z,22.90
2017-12-15T04:50:12.822Z,23.20
2017-12-15T04:52:41.243Z,23.40
2017-12-15T04:55:09.359Z,23.70
2017-12-15T04:57:41.184Z,24.00
2017-12-15T05:00:09.470Z,23.90
2017-12-15T05:02:39.171Z,23.90
2017-12-15T05:05:07.500Z,23.90
2017-12-15T05:07:36.336Z,23.40
2017-12-15T05:10:04.510Z,23.40
2017-12-15T05:25:30.648Z,24.30
2017-12-15T05:27:58.740Z,24.30
2017-12-15T05:30:26.844Z,24.30
2017-12-15T05:32:55.798Z,24.10
2017-12-15T05:35:23.821Z,24.10
2017-12-15T05:37:52.650Z,24.00
2017-12-15T05:40:20.935Z,24.00
2017-12-15T05:42:48.967Z,24.10
2017-12-15T05:45:17.065Z,24.00
2017-12-15T05:47:45.222Z,24.00
2017-12-15T05:50:13.276Z,23.90
2017-12-15T05:52:42.064Z,24.50
2017-12-15T05:55:10.938Z,24.60
2017-12-15T05:57:39.021Z,24.60
2017-12-15T06:00:07.034Z,24.60
2017-12-15T06:02:35.187Z,24.60
2017-12-15T06:05:04.009Z,24.90
2017-12-15T06:07:32.047Z,24.80
2017-12-15T06:10:00.922Z,25.10
2017-12-15T06:12:28.972Z,25.10
2017-12-15T06:14:57.107Z,25.10
2017-12-15T06:17:25.268Z,25.10
2017-12-15T06:19:53.337Z,25.20
2017-12-15T06:22:22.144Z,25.20
2017-12-15T06:24:50.313Z,25.20
2017-12-15T06:27:18.337Z,25.40
2017-12-15T06:29:46.389Z,25.50
2017-12-15T06:32:14.645Z,25.50
2017-12-15T06:34:42.843Z,25.60
2017-12-15T06:37:10.864Z,25.60
2017-12-15T06:39:39.060Z,25.80
2017-12-15T06:42:07.144Z,25.70
2017-12-15T06:44:35.192Z,25.90
2017-12-15T06:47:04.107Z,26.10
2017-12-15T06:49:32.146Z,26.00
2017-12-15T06:52:00.944Z,26.10
2017-12-15T06:54:29.868Z,26.30
2017-12-15T06:56:57.947Z,26.20
2017-12-15T06:59:25.966Z,26.40
2017-12-15T07:01:54.881Z,26.50
2017-12-15T07:04:22.956Z,26.50
2017-12-15T07:06:51.012Z,26.50
2017-12-15T07:09:19.883Z,26.70
2017-12-15T07:11:47.954Z,26.60
2017-12-15T07:14:16.025Z,26.50
2017-12-15T07:16:44.155Z,26.60
2017-12-15T07:19:12.166Z,26.80
2017-12-15T07:21:40.195Z,26.90
2017-12-15T07:24:08.339Z,27.00
2017-12-15T07:26:37.128Z,26.80
2017-12-15T07:29:05.946Z,27.00
2017-12-15T07:31:34.116Z,27.00
2017-12-15T07:34:02.177Z,27.00
2017-12-15T07:36:31.709Z,27.10
2017-12-15T07:39:00.024Z,27.10
2017-12-15T07:41:28.129Z,26.90
2017-12-15T07:43:56.915Z,27.20
2017-12-15T07:46:25.806Z,27.00
2017-12-15T07:48:54.575Z,27.00
2017-12-15T07:51:22.705Z,27.00
2017-12-15T07:53:50.882Z,27.20
2017-12-15T07:56:18.951Z,27.20
2017-12-15T07:58:47.024Z,27.20
2017-12-15T08:01:15.227Z,27.20
2017-12-15T08:03:43.308Z,27.20
2017-12-15T08:06:12.159Z,27.30
2017-12-15T08:08:40.311Z,27.30
2017-12-15T08:11:09.140Z,27.50
2017-12-15T08:13:37.187Z,27.50
2017-12-15T08:16:05.376Z,27.50
2017-12-15T08:18:33.439Z,27.20
2017-12-15T08:21:01.499Z,27.50
2017-12-15T08:23:30.399Z,27.70
2017-12-15T08:25:58.477Z,27.70
2017-12-15T08:28:26.541Z,27.80
2017-12-15T08:30:55.490Z,27.80
2017-12-15T08:33:23.540Z,27.80
2017-12-15T08:35:51.593Z,27.80
2017-12-15T08:38:19.809Z,27.80
2017-12-15T08:40:47.875Z,27.40
2017-12-15T08:43:15.961Z,27.50
2017-12-15T08:45:44.289Z,27.60
2017-12-15T08:48:12.598Z,27.50
2017-12-15T08:50:40.781Z,27.80
2017-12-15T08:53:08.940Z,27.80
2017-12-15T08:55:37.018Z,27.90
2017-12-15T08:58:05.108Z,27.90
2017-12-15T09:00:33.284Z,28.00
2017-12-15T09:03:01.364Z,28.00
2017-12-15T09:05:29.391Z,27.90
2017-12-15T09:07:57.571Z,28.10
2017-12-15T09:10:25.659Z,28.00
2017-12-15T09:12:53.764Z,27.80
2017-12-15T09:15:21.967Z,28.10
2017-12-15T09:17:50.800Z,28.50
2017-12-15T09:20:18.868Z,28.50
2017-12-15T09:22:47.039Z,28.50
2017-12-15T09:25:15.083Z,28.60
2017-12-15T09:27:43.896Z,28.10
2017-12-15T09:30:12.092Z,28.10
2017-12-15T09:32:40.153Z,27.80
2017-12-15T09:35:08.195Z,27.70
2017-12-15T09:37:37.098Z,28.00
2017-12-15T09:40:05.181Z,27.90
2017-12-15T09:42:33.269Z,27.90
2017-12-15T09:45:01.411Z,27.50
2017-12-15T09:47:30.332Z,27.60
2017-12-15T09:49:58.384Z,27.60
2017-12-15T09:52:26.526Z,27.90
2017-12-15T09:54:54.580Z,27.80
2017-12-15T09:57:22.632Z,27.70
2017-12-15T09:59:50.816Z,27.60
2017-12-15T10:02:18.891Z,27.70
2017-12-15T10:04:47.944Z,27.70
2017-12-15T10:07:16.102Z,27.60
2017-12-15T10:09:44.875Z,27.50
2017-12-15T10:12:12.894Z,27.50
2017-12-15T10:14:41.076Z,27.70
2017-12-15T10:17:09.129Z,27.70
2017-12-15T10:19:37.139Z,27.80
2017-12-15T10:22:05.317Z,27.90
2017-12-15T10:24:33.405Z,27.80
2017-12-15T10:27:01.545Z,27.90
2017-12-15T10:29:29.727Z,27.80
2017-12-15T10:31:57.746Z,27.60
2017-12-15T10:34:26.510Z,27.80
2017-12-15T10:36:54.643Z,27.80
2017-12-15T10:39:22.696Z,27.60
2017-12-15T10:41:51.489Z,27.60
2017-12-15T10:44:20.371Z,27.20
2017-12-15T10:46:49.176Z,27.30
2017-12-15T10:49:17.331Z,27.20
2017-12-15T10:51:46.232Z,27.30
2017-12-15T10:54:15.041Z,27.40
2017-12-15T10:56:43.089Z,27.40
2017-12-15T10:59:12.019Z,27.40
2017-12-15T11:01:40.027Z,27.40
2017-12-15T11:04:08.092Z,27.40
2017-12-15T11:06:36.257Z,27.20
2017-12-15T11:09:04.557Z,27.40
2017-12-15T11:11:33.269Z,27.40
2017-12-15T11:14:02.143Z,27.30
2017-12-15T11:16:30.217Z,27.30
2017-12-15T11:18:58.235Z,27.40
2017-12-15T11:21:26.382Z,27.50
2017-12-15T11:23:55.155Z,27.60
2017-12-15T11:26:23.175Z,27.60
2017-12-15T11:28:51.355Z,27.70
2017-12-15T11:31:19.374Z,27.60
2017-12-15T11:33:47.440Z,27.50
2017-12-15T11:36:15.645Z,27.40
2017-12-15T11:38:44.461Z,27.30
2017-12-15T11:41:12.546Z,27.30
2017-12-15T11:43:40.691Z,27.30
2017-12-15T11:46:08.790Z,27.20
2017-12-15T11:48:38.888Z,27.20
2017-12-15T11:51:14.134Z,27.20
2017-12-15T11:53:42.419Z,27.30
2017-12-15T11:56:10.537Z,27.40
2017-12-15T11:58:41.370Z,27.30
2017-12-15T12:01:09.591Z,27.20
2017-12-15T12:03:37.663Z,27.00
2017-12-15T12:06:07.852Z,27.20
2017-12-15T12:08:37.764Z,27.10
2017-12-15T12:11:07.008Z,27.10
2017-12-15T12:13:38.370Z,27.20
2017-12-15T12:16:07.623Z,27.30
2017-12-15T12:18:36.620Z,27.30
2017-12-15T12:21:05.461Z,27.30
2017-12-15T12:23:33.732Z,27.30
2017-12-15T12:26:01.821Z,27.20
2017-12-15T12:28:29.879Z,27.20
2017-12-15T12:31:01.057Z,27.10
2017-12-15T12:33:33.093Z,27.00
2017-12-15T12:36:01.329Z,26.90
2017-12-15T12:38:30.140Z,26.90
2017-12-15T12:40:58.188Z,26.90
2017-12-15T12:43:27.100Z,26.80
2017-12-15T12:45:55.944Z,26.70
2017-12-15T12:48:23.997Z,26.70
2017-12-15T12:50:52.176Z,26.70
2017-12-15T12:53:20.331Z,26.80
2017-12-15T12:55:48.385Z,26.80
2017-12-15T12:58:16.581Z,26.80
2017-12-15T13:00:44.661Z,26.70
2017-12-15T13:03:12.717Z,26.70
2017-12-15T13:05:41.039Z,26.70
2017-12-15T13:08:09.268Z,26.70
2017-12-15T13:10:37.319Z,26.60
2017-12-15T13:13:06.194Z,26.60
2017-12-15T13:15:34.225Z,26.60
2017-12-15T13:18:02.352Z,26.50
2017-12-15T13:20:30.503Z,26.60
2017-12-15T13:22:58.608Z,26.60
2017-12-15T13:25:27.371Z,26.60
2017-12-15T13:27:55.531Z,26.60
2017-12-15T13:30:23.886Z,26.60
2017-12-15T13:32:51.952Z,26.60
2017-12-15T13:35:20.114Z,26.60
2017-12-15T13:37:48.948Z,26.50
2017-12-15T13:40:17.033Z,26.50
2017-12-15T13:42:45.217Z,26.50
2017-12-15T13:45:13.375Z,26.40
2017-12-15T13:47:41.590Z,26.40
2017-12-15T13:50:10.500Z,26.40
2017-12-15T13:52:38.602Z,26.40
2017-12-15T13:55:06.759Z,26.40
2017-12-15T13:57:34.949Z,26.30
2017-12-15T14:00:03.011Z,26.30
2017-12-15T14:02:31.026Z,26.20
2017-12-15T14:04:59.158Z,26.20
2017-12-15T14:07:27.289Z,26.10
2017-12-15T14:09:55.298Z,26.10
2017-12-15T14:12:23.436Z,26.00
2017-12-15T14:14:52.202Z,26.00
2017-12-15T14:17:20.219Z,26.00
2017-12-15T14:19:49.111Z,26.00
2017-12-15T14:22:17.879Z,25.90
2017-12-15T14:24:46.655Z,25.80
2017-12-15T14:27:14.851Z,25.80
2017-12-15T14:29:43.627Z,25.80
2017-12-15T14:32:11.757Z,25.70
2017-12-15T14:34:39.952Z,25.70
2017-12-15T14:37:08.027Z,25.70
2017-12-15T14:39:36.931Z,25.50
2017-12-15T14:42:05.144Z,25.50
2017-12-15T14:44:33.914Z,25.50
2017-12-15T14:47:02.715Z,25.50
2017-12-15T14:49:31.607Z,25.40
2017-12-15T14:52:00.367Z,25.50
2017-12-15T14:54:28.395Z,25.40
2017-12-15T14:56:56.789Z,25.50
2017-12-15T14:59:24.823Z,25.50
2017-12-15T15:01:53.639Z,25.50
2017-12-15T15:04:21.816Z,25.50
2017-12-15T15:06:49.889Z,25.50
2017-12-15T15:09:17.919Z,25.40
2017-12-15T15:11:46.088Z,25.30
2017-12-15T15:14:14.325Z,25.30
2017-12-15T15:16:42.355Z,25.30
2017-12-15T15:19:11.235Z,25.30
2017-12-15T15:21:39.999Z,25.20
2017-12-15T15:24:08.031Z,25.20
2017-12-15T15:26:36.175Z,25.20
2017-12-15T15:29:04.932Z,25.10
2017-12-15T15:31:32.957Z,25.10
2017-12-15T15:34:01.144Z,25.10
2017-12-15T15:36:29.225Z,25.00
2017-12-15T15:38:57.372Z,25.10
2017-12-15T15:41:26.541Z,25.00
2017-12-15T15:43:54.827Z,25.00
2017-12-15T15:46:23.029Z,25.10
2017-12-15T15:48:52.053Z,25.10
2017-12-15T15:51:23.836Z,25.10
2017-12-15T15:53:55.103Z,25.10
2017-12-15T15:56:24.312Z,25.00
2017-12-15T15:58:53.284Z,24.80
2017-12-15T16:01:21.438Z,24.80
2017-12-15T16:03:49.734Z,24.90
2017-12-15T16:06:18.073Z,25.00
2017-12-15T16:08:46.372Z,24.90
2017-12-15T16:11:14.713Z,25.00
2017-12-15T16:13:43.556Z,24.90
2017-12-15T16:16:15.691Z,24.90
2017-12-15T16:18:47.368Z,25.00
2017-12-15T16:21:16.389Z,25.00
2017-12-15T16:23:44.571Z,25.00
2017-12-15T16:26:13.679Z,24.90
2017-12-15T16:28:48.571Z,24.80
2017-12-15T16:31:19.088Z,24.80
2017-12-15T16:33:47.445Z,24.70
2017-12-15T16:36:15.571Z,24.70
2017-12-15T16:38:43.937Z,24.70
2017-12-15T16:41:12.090Z,24.70
2017-12-15T16:43:40.197Z,24.60
2017-12-15T16:46:08.478Z,24.40
2017-12-15T16:48:36.615Z,24.30
2017-12-15T16:51:04.876Z,24.30
2017-12-15T16:53:33.291Z,24.30
2017-12-15T16:56:01.466Z,24.40
2017-12-15T16:58:29.804Z,24.30
2017-12-15T17:00:59.084Z,24.30
2017-12-15T17:03:27.363Z,24.30
2017-12-15T17:05:55.688Z,24.30
2017-12-15T17:08:24.091Z,24.10
2017-12-15T17:10:52.223Z,24.20
2017-12-15T17:13:20.267Z,24.20
2017-12-15T17:15:48.515Z,24.30
2017-12-15T17:18:16.618Z,24.30
2017-12-15T17:20:44.689Z,24.20
2017-12-15T17:23:12.903Z,24.30
2017-12-15T17:25:41.158Z,24.30
2017-12-15T17:28:10.199Z,24.10
2017-12-15T17:30:38.410Z,24.10
2017-12-15T17:33:06.555Z,23.90
2017-12-15T17:35:34.589Z,23.80
2017-12-15T17:38:03.519Z,24.00
2017-12-15T17:40:31.596Z,23.90
2017-12-15T17:42:59.643Z,24.10
2017-12-15T17:45:27.891Z,24.10
2017-12-15T17:47:56.675Z,23.90
2017-12-15T17:50:25.512Z,23.90
2017-12-15T17:52:53.690Z,23.90
2017-12-15T17:55:21.742Z,23.90
2017-12-15T17:57:49.795Z,23.90
2017-12-15T18:00:18.699Z,23.90
2017-12-15T18:02:46.867Z,23.90
2017-12-15T18:05:15.640Z,23.80
2017-12-15T18:07:44.589Z,23.70
2017-12-15T18:10:12.676Z,23.70
2017-12-15T18:12:40.710Z,23.80
2017-12-15T18:15:09.675Z,23.60
2017-12-15T18:17:38.513Z,23.70
2017-12-15T18:20:06.600Z,23.70
2017-12-15T18:22:34.759Z,23.70
2017-12-15T18:25:02.832Z,23.70
2017-12-15T18:27:30.904Z,23.80
2017-12-15T18:29:59.063Z,23.90
2017-12-15T18:32:27.148Z,23.80
2017-12-15T18:34:55.178Z,23.80
2017-12-15T18:37:24.086Z,23.90
2017-12-15T18:39:52.891Z,23.90
2017-12-15T18:42:21.008Z,23.80
2017-12-15T18:44:49.215Z,23.80
2017-12-15T18:47:17.995Z,23.70
2017-12-15T18:49:46.031Z,23.70
2017-12-15T18:52:15.055Z,23.70
2017-12-15T18:54:43.321Z,23.80
2017-12-15T18:57:11.973Z,23.70
2017-12-15T18:59:41.208Z,23.70
2017-12-15T19:02:10.163Z,23.80
2017-12-15T19:04:38.779Z,23.80
2017-12-15T19:07:07.193Z,23.80
2017-12-15T19:09:36.043Z,23.70
2017-12-15T19:12:04.573Z,23.70
2017-12-15T19:14:33.956Z,23.60
2017-12-15T19:17:02.435Z,23.60
2017-12-15T19:19:32.175Z,23.50
2017-12-15T19:22:00.650Z,23.50
2017-12-15T19:24:29.485Z,23.50
2017-12-15T19:26:58.468Z,23.40
2017-12-15T19:29:26.696Z,23.40
2017-12-15T19:31:54.952Z,23.30
2017-12-15T19:34:24.395Z,23.30
2017-12-15T19:36:54.052Z,23.40
2017-12-15T19:39:23.087Z,23.40
2017-12-15T19:41:52.133Z,23.40
2017-12-15T19:44:21.742Z,23.40
2017-12-15T19:46:50.226Z,23.40
2017-12-15T19:49:18.739Z,23.40
2017-12-15T19:51:47.124Z,23.40
2017-12-15T19:54:16.887Z,23.30
2017-12-15T19:56:45.835Z,23.30
2017-12-15T19:59:14.478Z,23.20
2017-12-15T20:01:43.345Z,23.10
2017-12-15T20:04:13.301Z,23.20
2017-12-15T20:06:42.132Z,23.20
2017-12-15T20:09:10.548Z,23.10
2017-12-15T20:11:38.916Z,23.10
2017-12-15T20:14:07.371Z,22.90
2017-12-15T20:16:35.642Z,22.90
2017-12-15T20:19:03.980Z,23.00
2017-12-15T20:21:32.768Z,23.00
2017-12-15T20:24:01.448Z,23.00
2017-12-15T20:26:29.660Z,23.00
2017-12-15T20:28:58.362Z,23.00
2017-12-15T20:31:26.489Z,23.00
2017-12-15T20:33:55.095Z,23.00
2017-12-15T20:36:23.347Z,23.00
2017-12-15T20:38:52.224Z,23.00
2017-12-15T20:41:20.526Z,22.90
2017-12-15T20:43:49.267Z,22.90
2017-12-15T20:46:17.980Z,22.90
2017-12-15T20:48:47.330Z,22.90
2017-12-15T20:51:16.115Z,22.80
2017-12-15T20:53:44.347Z,22.80
2017-12-15T20:56:13.841Z,22.70
2017-12-15T20:58:43.232Z,22.80
2017-12-15T21:01:11.385Z,22.70
2017-12-15T21:03:39.933Z,22.80
2017-12-15T21:06:08.283Z,22.80
2017-12-15T21:08:38.628Z,22.80
2017-12-15T21:11:07.713Z,22.70
2017-12-15T21:13:36.802Z,22.70
2017-12-15T21:16:05.842Z,22.60
2017-12-15T21:18:34.179Z,22.60
2017-12-15T21:21:03.251Z,22.60
2017-12-15T21:23:31.339Z,22.60
2017-12-15T21:25:59.931Z,22.50
2017-12-15T21:28:29.507Z,22.40
2017-12-15T21:31:02.021Z,22.40
2017-12-15T21:33:30.740Z,22.40
2017-12-15T21:35:59.712Z,22.40
2017-12-15T21:38:28.962Z,22.30
2017-12-15T21:40:57.263Z,22.30
2017-12-15T21:43:25.503Z,22.30
2017-12-15T21:45:54.520Z,22.30
2017-12-15T21:48:22.708Z,22.30
2017-12-15T21:50:52.416Z,22.30
2017-12-15T21:53:21.020Z,22.30
2017-12-15T21:55:50.075Z,22.40
2017-12-15T21:58:18.192Z,22.40
2017-12-15T22:00:47.004Z,22.40
2017-12-15T22:03:15.735Z,22.30
2017-12-15T22:05:44.118Z,22.40
2017-12-15T22:08:12.351Z,22.30
2017-12-15T22:10:41.294Z,22.30
2017-12-15T22:13:10.031Z,22.30
2017-12-15T22:15:38.528Z,22.20
2017-12-15T22:18:06.723Z,22.20
2017-12-15T22:20:35.379Z,22.40
2017-12-15T22:23:03.591Z,22.40
2017-12-15T22:25:32.615Z,22.40
2017-12-15T22:28:01.616Z,22.30
2017-12-15T22:30:31.046Z,22.30
2017-12-15T22:32:59.392Z,22.30
2017-12-15T22:35:27.854Z,22.30
2017-12-15T22:37:56.057Z,22.30
2017-12-15T22:40:25.452Z,22.30
2017-12-15T22:42:54.703Z,22.30
2017-12-15T22:45:23.341Z,22.30
2017-12-15T22:47:51.670Z,22.30
2017-12-15T22:50:19.710Z,22.30
2017-12-15T22:52:49.907Z,22.30
2017-12-15T22:55:18.703Z,22.30
2017-12-15T22:57:46.964Z,22.40
2017-12-15T23:00:14.999Z,22.30
2017-12-15T23:02:43.141Z,22.30
2017-12-15T23:05:11.924Z,22.20
2017-12-15T23:07:40.017Z,22.20
2017-12-15T23:10:08.947Z,22.20
2017-12-15T23:12:37.136Z,22.20
2017-12-15T23:15:05.176Z,22.20
2017-12-15T23:17:33.372Z,22.20
2017-12-15T23:20:01.404Z,22.10
2017-12-15T23:22:30.216Z,22.10
2017-12-15T23:24:58.383Z,22.10
2017-12-15T23:27:26.457Z,22.20
2017-12-15T23:29:54.499Z,22.10
2017-12-15T23:32:23.460Z,22.10
2017-12-15T23:34:51.525Z,22.10
2017-12-15T23:37:19.572Z,22.00
2017-12-15T23:39:47.812Z,22.00
2017-12-15T23:42:16.583Z,22.10
2017-12-15T23:44:44.635Z,22.10
2017-12-15T23:47:13.027Z,22.10
2017-12-15T23:49:41.231Z,22.10
2017-12-15T23:52:09.998Z,22.10
2017-12-15T23:54:49.586Z,22.10
2017-12-15T23:57:17.653Z,22.10
2017-12-15T23:59:46.456Z,22.00
